Time;durP1;ratioP1;P1;durP2;ratioP2;P2;SDS_P1;SDS_P2;PMS_P1;PMS_P2;Temp;Humidity;BMP_temperature;BMP_pressure;BME280_temperature;BME280_humidity;BME280_pressure;Samples;Min_cycle;Max_cycle;Signal;HPM_P1;HPM_P2
2023/05/09 00:02:10;;;;;;;17.20;15.40;;;15.40;99.90;;;;;;4945363;28;20246;-69
2023/05/09 00:04:37;;;;;;;17.27;15.57;;;15.10;99.90;;;;;;4935652;28;20220;-69
2023/05/09 00:07:02;;;;;;;16.45;14.60;;;15.20;99.90;;;;;;4962660;28;20188;-67
2023/05/09 00:09:28;;;;;;;17.60;15.80;;;15.10;99.90;;;;;;4960275;28;20196;-67
2023/05/09 00:11:53;;;;;;;18.43;15.00;;;15.10;99.90;;;;;;4962031;28;20482;-68
2023/05/09 00:14:19;;;;;;;17.00;15.20;;;15.10;99.90;;;;;;4960050;28;20208;-67
2023/05/09 00:16:45;;;;;;;16.50;14.90;;;15.20;99.90;;;;;;4956920;28;20207;-68
2023/05/09 00:19:11;;;;;;;17.00;15.27;;;15.10;99.90;;;;;;4962701;28;20717;-67
2023/05/09 00:21:37;;;;;;;17.05;15.30;;;15.10;99.90;;;;;;4964012;28;20390;-67
2023/05/09 00:24:03;;;;;;;18.27;15.80;;;15.40;99.90;;;;;;4955478;28;20610;-68
2023/05/09 00:26:29;;;;;;;16.02;14.43;;;15.10;99.90;;;;;;4963405;28;20280;-67
2023/05/09 00:28:54;;;;;;;15.93;14.40;;;15.20;99.90;;;;;;4961937;28;20307;-67
2023/05/09 00:31:20;;;;;;;17.13;15.37;;;15.10;99.90;;;;;;4958831;28;20691;-67
2023/05/09 00:33:46;;;;;;;15.73;14.20;;;15.40;99.90;;;;;;4959629;28;20729;-67
2023/05/09 00:36:11;;;;;;;17.37;15.60;;;15.40;99.90;;;;;;4958739;28;20203;-68
2023/05/09 00:38:37;;;;;;;18.17;15.57;;;15.30;99.90;;;;;;4958642;28;20448;-68
2023/05/09 00:41:03;;;;;;;15.97;13.50;;;15.50;99.90;;;;;;4960357;28;20235;-67
2023/05/09 00:43:29;;;;;;;16.13;14.50;;;15.40;99.90;;;;;;4939770;28;20613;-68
2023/05/09 00:45:54;;;;;;;15.67;14.00;;;15.10;99.90;;;;;;4941635;28;20177;-67
2023/05/09 00:48:21;;;;;;;16.03;14.50;;;15.40;99.90;;;;;;4945885;28;20519;-67
2023/05/09 00:50:51;;;;;;;20.35;15.52;;;15.30;99.90;;;;;;4944457;28;20211;-67
2023/05/09 00:53:20;;;;;;;15.90;14.23;;;15.40;99.90;;;;;;4957860;28;20235;-67
2023/05/09 00:55:46;;;;;;;17.23;15.43;;;15.10;99.90;;;;;;4960113;28;20194;-67
2023/05/09 00:58:12;;;;;;;18.38;15.48;;;15.20;99.90;;;;;;4955813;28;20200;-67
2023/05/09 01:00:37;;;;;;;16.37;14.63;;;15.30;99.90;;;;;;4953269;28;20219;-67
2023/05/09 01:03:03;;;;;;;18.93;16.93;;;15.40;99.90;;;;;;4960214;28;20444;-66
2023/05/09 01:05:39;;;;;;;17.10;15.45;;;15.30;99.90;;;;;;4937808;28;20189;-67
2023/05/09 01:08:42;;;;;;;16.90;15.07;;;15.40;99.90;;;;;;4963205;28;20463;-67
2023/05/09 01:11:38;;;;;;;17.42;15.60;;;15.20;99.90;;;;;;4936020;28;20471;-68
2023/05/09 01:14:28;;;;;;;17.88;16.08;;;15.10;99.90;;;;;;4955361;28;20251;-67
2023/05/09 01:17:22;;;;;;;18.13;15.55;;;14.90;99.90;;;;;;4947851;28;20194;-67
2023/05/09 01:20:04;;;;;;;17.40;15.60;;;14.90;99.90;;;;;;4956243;28;20204;-67
2023/05/09 01:22:34;;;;;;;16.85;15.10;;;15.00;99.90;;;;;;4954959;28;20256;-67
2023/05/09 01:25:15;;;;;;;17.85;16.05;;;15.10;99.90;;;;;;4958350;28;20184;-67
2023/05/09 01:27:57;;;;;;;20.17;17.23;;;15.00;99.90;;;;;;4938819;28;20987;-68
2023/05/09 01:30:25;;;;;;;18.95;16.85;;;15.10;99.90;;;;;;4960110;28;20219;-68
2023/05/09 01:32:55;;;;;;;19.42;17.42;;;14.90;99.90;;;;;;4947374;28;20540;-68
2023/05/09 01:35:25;;;;;;;19.48;17.48;;;14.60;99.90;;;;;;4958428;28;20944;-68
2023/05/09 01:37:52;;;;;;;18.83;16.92;;;14.90;99.90;;;;;;4959056;28;20237;-68
2023/05/09 01:40:20;;;;;;;18.35;16.45;;;15.00;99.90;;;;;;4958505;28;20287;-68
2023/05/09 01:42:58;;;;;;;19.88;17.48;;;14.90;99.90;;;;;;4961166;28;20188;-68
2023/05/09 01:45:25;;;;;;;18.77;16.85;;;15.20;99.90;;;;;;4957549;28;20673;-68
2023/05/09 01:47:52;;;;;;;18.65;16.73;;;14.70;99.90;;;;;;4959903;28;20546;-68
2023/05/09 01:50:20;;;;;;;19.42;17.40;;;14.80;99.90;;;;;;4959984;28;20196;-68
2023/05/09 01:52:48;;;;;;;18.92;16.73;;;15.00;99.90;;;;;;4963526;28;20615;-68
2023/05/09 01:55:15;;;;;;;21.08;18.60;;;14.80;99.90;;;;;;4959027;28;20227;-68
2023/05/09 01:57:42;;;;;;;18.48;16.58;;;15.00;99.90;;;;;;4960743;28;20194;-68
2023/05/09 02:00:09;;;;;;;19.48;17.20;;;15.00;99.90;;;;;;4960222;28;20560;-68
2023/05/09 02:02:36;;;;;;;19.40;17.17;;;14.90;99.90;;;;;;4963175;28;20220;-68
2023/05/09 02:05:02;;;;;;;20.77;18.63;;;15.20;99.90;;;;;;4959482;28;20741;-68
2023/05/09 02:07:29;;;;;;;21.00;18.80;;;14.80;99.90;;;;;;4938847;28;20204;-68
2023/05/09 02:09:56;;;;;;;22.70;20.08;;;14.80;99.90;;;;;;4950509;28;20205;-68
2023/05/09 02:12:25;;;;;;;25.02;19.42;;;15.00;99.90;;;;;;4957011;28;20199;-68
2023/05/09 02:14:51;;;;;;;21.85;19.27;;;15.10;99.90;;;;;;4955453;28;20208;-68
2023/05/09 02:17:18;;;;;;;22.37;19.50;;;15.00;99.90;;;;;;4957817;28;20196;-68
2023/05/09 02:19:43;;;;;;;22.52;19.35;;;15.00;99.90;;;;;;4961387;28;20200;-68
2023/05/09 02:22:10;;;;;;;22.07;19.77;;;14.80;99.90;;;;;;4960803;28;20670;-68
2023/05/09 02:24:36;;;;;;;21.63;19.35;;;14.90;99.90;;;;;;4940731;28;20189;-68
2023/05/09 02:27:03;;;;;;;22.03;19.80;;;14.70;99.90;;;;;;4956948;28;20194;-68
2023/05/09 02:29:39;;;;;;;21.50;19.20;;;14.90;99.90;;;;;;4945243;28;20184;-68
2023/05/09 02:32:17;;;;;;;19.23;17.23;;;15.10;99.90;;;;;;4960511;28;21573;-68
2023/05/09 02:34:44;;;;;;;19.70;17.70;;;15.00;99.90;;;;;;4959562;28;20215;-68
2023/05/09 02:37:12;;;;;;;20.23;18.05;;;15.10;99.90;;;;;;4961747;28;20189;-68
2023/05/09 02:39:37;;;;;;;19.98;17.95;;;15.30;99.90;;;;;;4961364;28;20240;-68
2023/05/09 02:42:09;;;;;;;21.03;18.63;;;15.40;99.90;;;;;;4960905;28;20239;-68
2023/05/09 02:44:35;;;;;;;19.83;17.73;;;15.10;99.90;;;;;;4961901;28;20196;-68
2023/05/09 02:47:01;;;;;;;19.60;17.50;;;15.10;99.90;;;;;;4958002;28;20246;-68
2023/05/09 02:49:27;;;;;;;21.42;17.85;;;15.40;99.90;;;;;;4960720;28;20809;-68
2023/05/09 02:51:53;;;;;;;19.37;17.37;;;15.10;99.90;;;;;;4963135;28;20271;-68
2023/05/09 02:54:18;;;;;;;20.50;18.20;;;15.20;99.90;;;;;;4958731;28;20196;-68
2023/05/09 02:56:44;;;;;;;21.60;19.10;;;14.90;99.90;;;;;;4961445;28;20204;-68
2023/05/09 02:59:09;;;;;;;21.43;18.17;;;15.00;99.90;;;;;;4967224;28;20235;-68
2023/05/09 03:01:35;;;;;;;24.00;21.33;;;14.70;99.90;;;;;;4961804;28;20248;-68
2023/05/09 03:04:01;;;;;;;20.33;18.23;;;14.70;99.90;;;;;;4958919;28;20185;-68
2023/05/09 03:06:26;;;;;;;23.17;19.17;;;15.10;99.90;;;;;;4941954;28;20200;-68
2023/05/09 03:08:52;;;;;;;22.80;19.77;;;15.00;99.90;;;;;;4942348;28;21044;-68
2023/05/09 03:11:18;;;;;;;22.10;19.17;;;15.20;99.90;;;;;;4960404;28;20263;-68
2023/05/09 03:13:44;;;;;;;21.60;19.20;;;15.00;99.90;;;;;;4961215;28;20285;-71
2023/05/09 03:16:13;;;;;;;22.05;19.77;;;15.40;99.90;;;;;;4960241;28;20188;-67
2023/05/09 03:18:39;;;;;;;21.85;18.55;;;15.30;99.90;;;;;;4948273;28;20255;-67
2023/05/09 03:21:04;;;;;;;21.93;19.63;;;15.20;99.90;;;;;;4955592;28;20213;-67
2023/05/09 03:23:30;;;;;;;23.77;20.90;;;15.10;99.90;;;;;;4940008;28;20542;-67
2023/05/09 03:25:56;;;;;;;22.03;19.73;;;15.10;99.90;;;;;;4962050;28;20181;-67
2023/05/09 03:28:21;;;;;;;24.67;20.37;;;15.20;99.90;;;;;;4956997;28;20357;-67
2023/05/09 03:30:47;;;;;;;22.07;19.67;;;15.00;99.90;;;;;;4940105;28;20208;-67
2023/05/09 03:33:12;;;;;;;23.20;18.97;;;15.20;99.90;;;;;;4957415;28;20180;-68
2023/05/09 03:35:38;;;;;;;21.93;19.57;;;15.10;99.90;;;;;;4959627;28;20203;-68
2023/05/09 03:38:04;;;;;;;21.83;19.20;;;15.20;99.90;;;;;;4957662;28;20311;-69
2023/05/09 03:40:30;;;;;;;21.67;19.30;;;15.00;99.90;;;;;;4963162;28;20215;-69
2023/05/09 03:42:55;;;;;;;24.03;20.63;;;14.80;99.90;;;;;;4959562;28;20184;-69
2023/05/09 03:45:21;;;;;;;21.93;19.40;;;14.80;99.90;;;;;;4957709;28;20200;-69
2023/05/09 03:47:46;;;;;;;22.27;19.90;;;14.70;99.90;;;;;;4958562;28;20181;-68
2023/05/09 03:50:12;;;;;;;23.80;20.40;;;15.10;99.90;;;;;;4957865;28;20211;-68
2023/05/09 03:52:37;;;;;;;22.17;19.53;;;14.70;99.90;;;;;;4957924;28;20188;-68
2023/05/09 03:55:04;;;;;;;24.77;21.20;;;14.70;99.90;;;;;;4962401;28;20196;-69
2023/05/09 03:57:30;;;;;;;20.10;18.02;;;14.60;99.90;;;;;;4961778;28;20188;-68
2023/05/09 03:59:56;;;;;;;21.58;19.27;;;14.80;99.90;;;;;;4953997;28;20211;-68
2023/05/09 04:02:22;;;;;;;24.30;20.13;;;14.80;99.90;;;;;;4957746;28;20693;-68
2023/05/09 04:04:48;;;;;;;23.02;19.75;;;14.70;99.90;;;;;;4959053;28;20990;-69
2023/05/09 04:07:14;;;;;;;22.38;19.65;;;14.80;99.90;;;;;;4960692;28;20195;-70
2023/05/09 04:09:41;;;;;;;21.87;19.67;;;14.80;99.90;;;;;;4957206;28;20214;-68
2023/05/09 04:12:07;;;;;;;22.58;20.17;;;15.00;99.90;;;;;;4961362;28;20184;-68
2023/05/09 04:14:33;;;;;;;24.05;19.92;;;14.70;99.90;;;;;;4939819;28;20196;-68
2023/05/09 04:16:58;;;;;;;23.83;20.80;;;14.60;99.90;;;;;;4964929;28;20191;-68
2023/05/09 04:19:24;;;;;;;21.13;18.70;;;14.70;99.90;;;;;;4958698;28;20223;-68
2023/05/09 04:21:50;;;;;;;22.37;19.97;;;14.80;99.90;;;;;;4958228;28;20217;-68
2023/05/09 04:24:15;;;;;;;22.57;19.50;;;15.00;99.90;;;;;;4940459;28;20279;-69
2023/05/09 04:26:41;;;;;;;25.00;20.20;;;14.70;99.90;;;;;;4945915;28;20218;-68
2023/05/09 04:29:07;;;;;;;23.40;19.97;;;14.80;99.90;;;;;;4957055;28;20183;-68
2023/05/09 04:31:32;;;;;;;21.63;19.10;;;14.30;99.90;;;;;;4954011;28;20204;-68
2023/05/09 04:33:58;;;;;;;22.90;20.10;;;14.70;99.90;;;;;;4957644;28;20186;-69
2023/05/09 04:36:23;;;;;;;24.20;19.50;;;14.70;99.90;;;;;;4957166;28;20189;-68
2023/05/09 04:38:49;;;;;;;25.70;21.47;;;14.60;99.90;;;;;;4953619;28;20552;-68
2023/05/09 04:41:15;;;;;;;26.13;19.55;;;14.60;99.90;;;;;;4939540;28;20266;-69
2023/05/09 04:43:42;;;;;;;23.13;20.30;;;14.80;99.90;;;;;;4957905;28;20189;-68
2023/05/09 04:46:07;;;;;;;20.98;18.73;;;15.00;99.90;;;;;;4959226;28;20762;-70
2023/05/09 04:48:34;;;;;;;21.40;18.97;;;14.90;99.90;;;;;;4957170;28;20189;-68
2023/05/09 04:51:00;;;;;;;23.45;19.77;;;14.90;99.90;;;;;;4955370;28;20212;-67
2023/05/09 04:53:27;;;;;;;22.30;19.45;;;15.10;99.90;;;;;;4959639;28;20255;-67
2023/05/09 04:55:53;;;;;;;21.65;19.40;;;15.30;99.90;;;;;;4960581;28;20197;-69
2023/05/09 04:58:19;;;;;;;21.90;17.67;;;15.10;99.90;;;;;;4959175;28;20224;-71
2023/05/09 05:00:45;;;;;;;20.58;18.48;;;15.50;99.90;;;;;;4959632;28;20222;-72
2023/05/09 05:03:11;;;;;;;20.77;18.60;;;15.40;99.90;;;;;;4964948;28;20709;-67
2023/05/09 05:05:37;;;;;;;19.98;17.88;;;15.50;99.90;;;;;;4959618;28;20192;-68
2023/05/09 05:08:02;;;;;;;19.57;17.33;;;15.60;99.90;;;;;;4961362;28;20196;-67
2023/05/09 05:10:29;;;;;;;19.67;17.67;;;15.50;99.90;;;;;;4965209;28;20262;-68
2023/05/09 05:12:54;;;;;;;19.73;17.63;;;15.60;99.90;;;;;;4958899;28;20179;-67
2023/05/09 05:15:20;;;;;;;16.57;14.87;;;16.00;99.90;;;;;;4959894;28;20274;-68
2023/05/09 05:17:46;;;;;;;18.90;17.10;;;16.20;99.90;;;;;;4961002;28;20212;-67
2023/05/09 05:20:11;;;;;;;21.20;19.00;;;16.20;99.90;;;;;;4962141;28;20212;-68
2023/05/09 05:22:37;;;;;;;21.93;19.27;;;16.50;99.90;;;;;;4958842;28;20231;-70
2023/05/09 05:25:03;;;;;;;17.80;16.00;;;16.70;99.90;;;;;;4958937;28;20183;-71
2023/05/09 05:27:29;;;;;;;17.75;16.05;;;16.70;99.90;;;;;;4958565;28;20641;-70
2023/05/09 05:29:55;;;;;;;19.40;17.50;;;16.70;99.90;;;;;;4963405;28;20215;-71
2023/05/09 05:32:20;;;;;;;17.50;15.70;;;16.80;99.90;;;;;;4956264;28;20192;-70
2023/05/09 05:34:46;;;;;;;19.60;16.17;;;16.70;99.90;;;;;;4961337;28;20636;-69
2023/05/09 05:37:11;;;;;;;18.47;16.67;;;16.60;99.90;;;;;;4955053;28;20696;-70
2023/05/09 05:39:37;;;;;;;21.60;18.63;;;16.60;99.90;;;;;;4962718;28;20693;-68
2023/05/09 05:42:02;;;;;;;19.93;17.93;;;16.40;99.90;;;;;;4961411;28;20255;-66
2023/05/09 05:44:28;;;;;;;18.17;16.37;;;16.50;99.90;;;;;;4956107;28;20189;-68
2023/05/09 05:46:54;;;;;;;19.13;17.00;;;16.40;99.90;;;;;;4958228;28;20195;-68
2023/05/09 05:49:19;;;;;;;17.87;16.07;;;16.40;99.90;;;;;;4960142;28;20184;-67
2023/05/09 05:51:45;;;;;;;19.80;16.30;;;16.50;99.90;;;;;;4965010;28;20625;-67
2023/05/09 05:54:10;;;;;;;17.73;15.93;;;16.60;99.90;;;;;;4956046;28;20200;-66
2023/05/09 05:56:36;;;;;;;20.13;17.57;;;16.90;99.90;;;;;;4961042;28;20193;-66
2023/05/09 05:59:01;;;;;;;17.73;15.83;;;17.10;99.90;;;;;;4966495;28;20709;-66
2023/05/09 06:01:27;;;;;;;19.37;16.20;;;17.10;99.90;;;;;;4967349;28;20266;-69
2023/05/09 06:03:55;;;;;;;19.57;17.50;;;17.00;99.90;;;;;;4958445;28;20572;-68
2023/05/09 06:06:21;;;;;;;19.83;17.65;;;17.00;99.90;;;;;;4962054;28;20722;-66
2023/05/09 06:08:50;;;;;;;19.50;17.50;;;17.10;99.90;;;;;;4961538;28;20276;-67
2023/05/09 06:11:16;;;;;;;21.05;18.17;;;17.20;99.90;;;;;;4959864;28;20220;-68
2023/05/09 06:13:41;;;;;;;21.13;17.87;;;17.40;99.90;;;;;;4965253;28;20214;-68
2023/05/09 06:16:08;;;;;;;21.70;19.40;;;17.50;99.90;;;;;;4962088;28;20948;-67
2023/05/09 06:18:36;;;;;;;21.73;19.02;;;17.80;99.90;;;;;;4964340;28;20228;-66
2023/05/09 06:21:05;;;;;;;18.83;16.98;;;18.10;99.90;;;;;;4939185;28;20220;-67
2023/05/09 06:23:30;;;;;;;18.83;16.25;;;18.10;99.90;;;;;;4967519;28;20284;-68
2023/05/09 06:25:56;;;;;;;17.67;15.83;;;18.20;99.90;;;;;;4958399;28;20283;-67
2023/05/09 06:28:22;;;;;;;18.97;17.03;;;18.80;99.90;;;;;;4957388;28;20196;-68
2023/05/09 06:30:47;;;;;;;19.77;16.60;;;18.40;99.90;;;;;;4958642;28;20806;-67
2023/05/09 06:33:13;;;;;;;18.27;16.47;;;18.40;99.90;;;;;;4960988;28;20177;-69
2023/05/09 06:35:38;;;;;;;19.20;17.07;;;18.50;99.90;;;;;;4967994;28;20187;-73
2023/05/09 06:38:04;;;;;;;19.33;17.33;;;18.50;99.90;;;;;;4967664;28;20236;-69
2023/05/09 06:40:30;;;;;;;19.13;17.23;;;18.30;99.90;;;;;;4967917;28;20208;-70
2023/05/09 06:42:56;;;;;;;20.53;18.43;;;18.30;99.90;;;;;;4960770;28;20193;-69
2023/05/09 06:45:21;;;;;;;19.47;17.37;;;18.30;99.90;;;;;;4962017;28;20650;-68
2023/05/09 06:47:47;;;;;;;19.73;17.73;;;18.60;99.90;;;;;;4962652;28;20455;-66
2023/05/09 06:50:12;;;;;;;22.13;17.17;;;18.40;99.90;;;;;;4959734;28;20215;-65
2023/05/09 06:52:38;;;;;;;20.57;18.37;;;18.40;99.90;;;;;;4961173;28;20195;-65
2023/05/09 06:55:04;;;;;;;19.37;17.30;;;18.50;99.90;;;;;;4963634;28;20212;-66
2023/05/09 06:57:30;;;;;;;17.92;16.05;;;18.50;99.90;;;;;;4962580;28;20324;-67
2023/05/09 06:59:55;;;;;;;17.83;15.93;;;18.70;99.90;;;;;;4965611;28;20286;-67
2023/05/09 07:02:21;;;;;;;20.47;18.20;;;19.20;99.90;;;;;;4963489;28;20478;-67
2023/05/09 07:04:47;;;;;;;17.27;15.57;;;19.30;99.90;;;;;;4961935;28;20184;-68
2023/05/09 07:07:12;;;;;;;16.97;15.37;;;19.60;99.90;;;;;;4960692;28;20185;-68
2023/05/09 07:09:38;;;;;;;17.57;15.87;;;20.00;99.90;;;;;;4961439;28;20204;-67
2023/05/09 07:12:04;;;;;;;17.43;15.83;;;20.50;99.90;;;;;;4961540;28;20192;-68
2023/05/09 07:14:29;;;;;;;18.03;16.20;;;21.40;99.90;;;;;;4963554;28;20196;-70
2023/05/09 07:16:55;;;;;;;17.43;15.73;;;22.40;98.90;;;;;;4960873;28;20460;-70
2023/05/09 07:19:21;;;;;;;17.93;14.47;;;23.60;95.90;;;;;;4960024;28;20185;-72
2023/05/09 07:21:46;;;;;;;16.20;14.70;;;24.20;94.00;;;;;;4944789;28;20340;-70
2023/05/09 07:24:12;;;;;;;17.63;16.03;;;23.40;93.90;;;;;;4955848;28;20208;-72
2023/05/09 07:26:37;;;;;;;17.30;15.80;;;23.00;94.10;;;;;;4963393;28;20180;-68
2023/05/09 07:29:03;;;;;;;18.23;16.30;;;22.60;94.10;;;;;;4961936;28;20255;-65
2023/05/09 07:31:29;;;;;;;16.80;15.00;;;22.80;94.10;;;;;;4963075;28;20215;-65
2023/05/09 07:33:54;;;;;;;16.97;15.37;;;23.20;94.00;;;;;;4961606;28;20651;-67
2023/05/09 07:36:20;;;;;;;14.77;13.47;;;24.00;92.50;;;;;;4965326;28;20194;-67
2023/05/09 07:38:47;;;;;;;15.90;14.40;;;24.50;91.20;;;;;;4960408;28;20282;-67
2023/05/09 07:41:13;;;;;;;14.60;13.10;;;25.00;90.60;;;;;;4963312;28;20679;-67
2023/05/09 07:43:39;;;;;;;15.43;13.93;;;26.30;88.40;;;;;;4946877;28;20444;-66
2023/05/09 07:46:04;;;;;;;14.93;13.47;;;27.20;82.70;;;;;;4961478;28;20190;-69
2023/05/09 07:48:30;;;;;;;17.03;13.20;;;28.10;79.10;;;;;;4960429;28;20190;-66
2023/05/09 07:50:57;;;;;;;14.40;13.20;;;28.10;76.90;;;;;;4963542;28;20210;-66
2023/05/09 07:53:22;;;;;;;13.33;12.13;;;28.20;75.60;;;;;;4962545;28;20196;-68
2023/05/09 07:55:49;;;;;;;13.07;11.97;;;28.30;75.30;;;;;;4957374;28;20463;-64
2023/05/09 07:58:15;;;;;;;12.27;11.30;;;28.40;75.30;;;;;;4962342;28;20199;-66
2023/05/09 08:00:41;;;;;;;12.67;11.57;;;28.50;74.90;;;;;;4964130;28;20859;-68
2023/05/09 08:03:07;;;;;;;12.93;11.40;;;28.20;75.10;;;;;;4958472;28;20445;-66
2023/05/09 08:05:32;;;;;;;12.13;11.13;;;28.60;74.50;;;;;;4959485;28;20620;-66
2023/05/09 08:07:58;;;;;;;12.77;11.67;;;29.70;71.80;;;;;;4964070;28;20192;-68
2023/05/09 08:10:25;;;;;;;11.80;10.80;;;30.30;68.30;;;;;;4957821;28;20494;-65
2023/05/09 08:12:51;;;;;;;10.23;9.43;;;30.00;69.70;;;;;;4961564;28;20770;-68
2023/05/09 08:15:17;;;;;;;9.60;8.80;;;30.60;66.10;;;;;;4957786;28;20447;-69
2023/05/09 08:17:42;;;;;;;7.97;7.37;;;30.30;64.30;;;;;;4958857;28;20204;-66
2023/05/09 08:20:09;;;;;;;11.53;10.57;;;29.20;67.20;;;;;;4962018;28;20208;-67
2023/05/09 08:22:37;;;;;;;10.67;9.80;;;28.30;70.90;;;;;;4957445;28;20313;-70
2023/05/09 08:25:04;;;;;;;10.00;9.20;;;27.50;74.30;;;;;;4965542;28;20530;-71
2023/05/09 08:27:29;;;;;;;9.70;8.80;;;27.90;74.10;;;;;;4959202;28;20480;-67
2023/05/09 08:29:55;;;;;;;11.60;10.60;;;28.30;73.00;;;;;;4944488;28;20518;-68
2023/05/09 08:32:20;;;;;;;10.10;9.27;;;28.80;70.90;;;;;;4958495;28;20196;-67
2023/05/09 08:34:46;;;;;;;9.57;8.73;;;29.10;70.90;;;;;;4963244;28;20222;-67
2023/05/09 08:37:11;;;;;;;9.70;8.90;;;30.10;66.60;;;;;;4944688;28;20416;-67
2023/05/09 08:39:37;;;;;;;10.33;9.53;;;30.60;65.30;;;;;;4959492;28;20219;-64
2023/05/09 08:42:03;;;;;;;10.63;9.73;;;30.80;64.20;;;;;;4958709;28;20606;-64
2023/05/09 08:44:30;;;;;;;9.40;8.67;;;31.00;61.90;;;;;;4956993;28;20218;-65
2023/05/09 08:46:59;;;;;;;10.20;9.40;;;31.40;61.80;;;;;;4956884;28;20195;-65
2023/05/09 08:49:25;;;;;;;11.83;10.90;;;30.90;61.10;;;;;;4961602;28;20452;-66
2023/05/09 08:51:51;;;;;;;11.50;10.57;;;30.40;62.40;;;;;;4960557;28;20466;-65
2023/05/09 08:54:18;;;;;;;12.93;11.60;;;31.10;62.10;;;;;;4957059;28;20482;-66
2023/05/09 08:56:44;;;;;;;13.30;12.27;;;30.50;62.70;;;;;;4954172;28;20456;-66
2023/05/09 08:59:09;;;;;;;12.83;11.70;;;29.50;65.50;;;;;;4957018;28;20824;-69
2023/05/09 09:01:35;;;;;;;12.00;11.00;;;29.10;67.00;;;;;;4960067;28;21017;-69
2023/05/09 09:04:07;;;;;;;11.90;10.90;;;28.70;68.60;;;;;;4942093;28;20658;-68
2023/05/09 09:06:34;;;;;;;12.57;11.43;;;28.70;67.90;;;;;;4958558;28;20462;-67
2023/05/09 09:09:01;;;;;;;13.87;12.67;;;28.60;68.40;;;;;;4962641;28;20480;-73
2023/05/09 09:11:29;;;;;;;11.93;10.93;;;27.90;70.40;;;;;;4956772;28;20530;-69
2023/05/09 09:14:01;;;;;;;12.13;11.00;;;27.10;73.00;;;;;;4959526;28;20999;-67
2023/05/09 09:16:28;;;;;;;10.63;9.73;;;26.00;74.60;;;;;;4960739;28;20451;-68
2023/05/09 09:18:55;;;;;;;10.43;9.53;;;25.60;75.70;;;;;;4944024;28;20462;-68
2023/05/09 09:21:22;;;;;;;11.10;10.10;;;25.70;76.30;;;;;;4960408;28;20476;-65
2023/05/09 09:23:49;;;;;;;9.70;8.90;;;26.30;76.40;;;;;;4957198;28;20441;-63
2023/05/09 09:26:15;;;;;;;12.70;11.53;;;27.50;74.00;;;;;;4958743;28;20485;-70
2023/05/09 09:28:41;;;;;;;11.63;10.60;;;27.70;71.90;;;;;;4961723;28;20459;-70
2023/05/09 09:31:24;;;;;;;11.70;10.70;;;27.50;73.00;;;;;;4962201;28;20485;-71
2023/05/09 09:33:50;;;;;;;11.20;10.30;;;27.40;73.90;;;;;;4960842;28;20457;-69
2023/05/09 09:36:25;;;;;;;10.37;9.57;;;27.50;72.70;;;;;;4967336;28;20455;-69
2023/05/09 09:38:57;;;;;;;15.00;9.90;;;27.30;72.90;;;;;;4957906;28;20535;-72
2023/05/09 09:41:32;;;;;;;12.00;10.07;;;27.10;72.40;;;;;;4960733;28;20473;-69
2023/05/09 09:43:58;;;;;;;10.50;9.60;;;26.30;72.80;;;;;;4958826;28;20444;-70
2023/05/09 09:46:24;;;;;;;8.63;7.83;;;26.40;74.70;;;;;;4944622;28;20507;-69
2023/05/09 09:48:54;;;;;;;9.40;8.60;;;26.00;75.70;;;;;;4960349;28;20183;-71
2023/05/09 09:51:20;;;;;;;9.20;8.30;;;25.40;75.70;;;;;;4962178;28;20270;-71
2023/05/09 09:53:46;;;;;;;12.23;10.87;;;25.40;78.60;;;;;;4940386;28;20454;-72
2023/05/09 09:56:12;;;;;;;10.30;9.43;;;25.00;80.10;;;;;;4939533;28;20191;-71
2023/05/09 09:58:37;;;;;;;10.00;9.10;;;24.90;81.40;;;;;;4957148;28;20311;-71
2023/05/09 10:01:08;;;;;;;10.70;9.80;;;24.70;80.10;;;;;;4955985;28;20581;-71
2023/05/09 10:03:41;;;;;;;11.17;10.27;;;25.50;80.40;;;;;;4962314;28;20538;-71
2023/05/09 10:06:12;;;;;;;11.07;9.97;;;25.60;79.20;;;;;;4953622;28;20438;-71
2023/05/09 10:08:39;;;;;;;12.20;11.10;;;25.40;79.70;;;;;;4961675;28;20534;-71
2023/05/09 10:11:04;;;;;;;11.37;10.27;;;25.30;80.20;;;;;;4941547;28;20858;-71
2023/05/09 10:13:33;;;;;;;12.33;11.13;;;24.50;82.90;;;;;;4960977;28;20970;-70
2023/05/09 10:15:59;;;;;;;13.67;11.30;;;24.10;85.70;;;;;;4939618;28;20475;-69
2023/05/09 10:18:32;;;;;;;12.20;10.60;;;23.80;86.80;;;;;;4958708;28;20518;-72
2023/05/09 10:21:02;;;;;;;12.70;11.50;;;23.70;87.40;;;;;;4943377;28;20467;-70
2023/05/09 10:23:35;;;;;;;12.30;11.20;;;23.80;87.80;;;;;;4957307;28;20488;-71
2023/05/09 10:26:26;;;;;;;11.97;10.57;;;23.80;90.00;;;;;;4960610;28;20491;-69
2023/05/09 10:28:54;;;;;;;12.33;11.10;;;24.10;87.70;;;;;;4955220;28;20471;-71
2023/05/09 10:31:27;;;;;;;11.63;10.63;;;24.40;87.00;;;;;;4943357;28;20506;-71
2023/05/09 10:33:57;;;;;;;11.07;10.10;;;24.50;85.90;;;;;;4941315;28;20454;-70
2023/05/09 10:36:23;;;;;;;12.20;11.10;;;24.10;87.10;;;;;;4960930;28;20524;-71
2023/05/09 10:38:54;;;;;;;12.67;11.43;;;24.00;87.70;;;;;;4962301;28;20445;-71
2023/05/09 10:41:20;;;;;;;12.80;11.60;;;24.10;88.10;;;;;;4963609;28;20900;-70
2023/05/09 10:43:47;;;;;;;11.80;10.60;;;24.60;86.50;;;;;;4970233;28;20536;-70
2023/05/09 10:46:13;;;;;;;12.13;10.90;;;24.90;85.00;;;;;;4967037;28;20458;-71
2023/05/09 10:48:40;;;;;;;12.63;11.53;;;24.90;83.50;;;;;;4959992;28;20449;-70
2023/05/09 10:51:07;;;;;;;13.37;12.27;;;24.80;84.90;;;;;;4961684;28;20502;-72
2023/05/09 10:53:43;;;;;;;12.60;11.30;;;24.90;85.40;;;;;;4965666;28;20461;-70
2023/05/09 10:56:20;;;;;;;11.80;10.80;;;24.90;85.30;;;;;;4961473;28;20435;-70
2023/05/09 10:58:47;;;;;;;12.97;11.77;;;25.00;84.80;;;;;;4959459;28;20945;-67
2023/05/09 11:01:12;;;;;;;10.90;9.90;;;25.10;85.50;;;;;;4960285;28;20501;-68
2023/05/09 11:03:55;;;;;;;12.00;10.90;;;25.20;83.00;;;;;;4959057;28;20478;-68
2023/05/09 11:06:44;;;;;;;10.03;9.07;;;25.50;83.10;;;;;;4960516;28;20180;-68
2023/05/09 11:09:36;;;;;;;12.00;10.80;;;26.20;80.60;;;;;;4947097;28;20936;-70
2023/05/09 11:12:12;;;;;;;10.33;9.33;;;27.20;77.50;;;;;;4938334;28;20496;-70
2023/05/09 11:14:42;;;;;;;11.03;10.00;;;27.00;76.50;;;;;;4943539;28;20496;-70
2023/05/09 11:17:13;;;;;;;9.33;8.53;;;27.10;75.00;;;;;;4945660;28;20448;-70
2023/05/09 11:19:44;;;;;;;10.17;9.20;;;26.90;74.80;;;;;;4945004;28;20554;-65
2023/05/09 11:22:12;;;;;;;9.37;8.40;;;26.50;76.70;;;;;;4961030;28;20517;-67
2023/05/09 11:24:39;;;;;;;10.17;8.20;;;26.70;77.60;;;;;;4961901;28;20438;-65
2023/05/09 11:27:27;;;;;;;7.83;7.13;;;26.40;77.50;;;;;;4959335;28;21016;-66
2023/05/09 11:29:57;;;;;;;8.20;7.50;;;26.60;77.00;;;;;;4945334;28;20490;-66
2023/05/09 11:32:40;;;;;;;6.80;6.30;;;26.80;76.10;;;;;;4961294;28;20673;-66
2023/05/09 11:35:14;;;;;;;24.37;20.90;;;27.60;74.00;;;;;;4960099;28;21057;-66
2023/05/09 11:37:51;;;;;;;6.17;5.50;;;27.40;73.50;;;;;;4960498;28;20449;-66
2023/05/09 11:40:18;;;;;;;5.77;5.27;;;28.10;71.20;;;;;;4960586;28;20481;-66
2023/05/09 11:42:55;;;;;;;5.80;5.33;;;27.70;71.20;;;;;;4944761;28;20816;-70
2023/05/09 11:45:31;;;;;;;5.30;4.90;;;27.60;71.30;;;;;;4959088;28;20530;-69
2023/05/09 11:47:57;;;;;;;6.07;5.57;;;27.20;72.60;;;;;;4955515;28;20445;-69
2023/05/09 11:50:23;;;;;;;5.07;4.67;;;26.70;73.60;;;;;;4959006;28;20836;-65
2023/05/09 11:52:49;;;;;;;4.80;4.50;;;26.20;75.20;;;;;;4959483;28;20448;-66
2023/05/09 11:55:17;;;;;;;4.30;4.00;;;26.10;75.60;;;;;;4957091;28;20440;-71
2023/05/09 11:57:51;;;;;;;3.73;3.33;;;25.80;76.70;;;;;;4963139;28;20551;-68
2023/05/09 12:00:19;;;;;;;3.67;3.37;;;25.40;75.60;;;;;;4957187;28;21030;-67
2023/05/09 12:02:46;;;;;;;3.90;3.60;;;25.20;76.40;;;;;;4942973;28;20609;-66
2023/05/09 12:05:14;;;;;;;3.00;2.80;;;25.20;76.80;;;;;;4941120;28;20653;-67
2023/05/09 12:07:41;;;;;;;3.60;2.80;;;25.00;75.30;;;;;;4954763;28;21064;-68
2023/05/09 12:10:07;;;;;;;3.10;2.90;;;24.80;77.50;;;;;;4955385;28;20524;-68
2023/05/09 12:12:34;;;;;;;4.93;4.30;;;24.70;77.70;;;;;;4958200;28;20452;-66
2023/05/09 12:15:06;;;;;;;4.10;3.70;;;24.20;80.70;;;;;;4955651;28;20564;-67
2023/05/09 12:17:32;;;;;;;4.13;3.10;;;24.20;82.00;;;;;;4954487;28;20460;-70
2023/05/09 12:20:00;;;;;;;3.70;3.40;;;24.10;80.60;;;;;;4955846;28;20559;-67
2023/05/09 12:22:26;;;;;;;3.80;3.50;;;24.40;81.50;;;;;;4965224;28;20487;-65
2023/05/09 12:24:53;;;;;;;3.40;3.10;;;24.40;81.10;;;;;;4961027;28;20462;-66
2023/05/09 12:27:19;;;;;;;4.20;3.90;;;24.20;81.30;;;;;;4962066;28;20453;-65
2023/05/09 12:29:47;;;;;;;3.90;3.53;;;24.50;82.10;;;;;;4959715;28;20499;-67
2023/05/09 12:32:15;;;;;;;2.33;2.23;;;24.60;81.10;;;;;;4946374;28;20484;-63
2023/05/09 12:34:43;;;;;;;2.30;2.17;;;24.70;76.60;;;;;;4960333;28;20478;-67